Time;durP1;ratioP1;P1;durP2;ratioP2;P2;SDS_P1;SDS_P2;PMS_P1;PMS_P2;Temp;Humidity;BMP_temperature;BMP_pressure;BME280_temperature;BME280_humidity;BME280_pressure;Samples;Min_cycle;Max_cycle;Signal;HPM_P1;HPM_P2
2023/08/01 00:00:36;;;;;;;5.00;3.37;;;;;;;17.73;100.00;97175.13;5052301;28;20236;-82
2023/08/01 00:03:02;;;;;;;4.50;3.13;;;;;;;17.76;100.00;97182.81;5053576;28;20208;-82
2023/08/01 00:05:29;;;;;;;4.50;3.47;;;;;;;17.76;100.00;97176.63;5053144;28;20675;-82
2023/08/01 00:07:56;;;;;;;4.90;3.60;;;;;;;17.77;100.00;97178.31;5053366;28;20204;-82
2023/08/01 00:10:22;;;;;;;5.70;3.40;;;;;;;17.74;100.00;97166.13;5052545;28;20224;-82
2023/08/01 00:12:50;;;;;;;5.13;3.30;;;;;;;17.69;100.00;97171.13;5053119;28;20208;-81
2023/08/01 00:15:16;;;;;;;5.97;3.63;;;;;;;17.64;100.00;97162.84;5053173;28;20218;-81
2023/08/01 00:17:43;;;;;;;6.37;3.80;;;;;;;17.60;100.00;97155.31;5053373;28;20218;-81
2023/08/01 00:20:10;;;;;;;4.27;3.47;;;;;;;17.61;100.00;97151.66;5052320;28;20235;-81
2023/08/01 00:22:37;;;;;;;6.83;3.83;;;;;;;17.55;100.00;97152.34;5053023;28;20211;-81
2023/08/01 00:25:04;;;;;;;6.40;3.77;;;;;;;17.49;100.00;97142.34;5052904;28;20212;-81
2023/08/01 00:27:32;;;;;;;6.07;3.80;;;;;;;17.44;100.00;97131.34;5053004;28;20208;-81
2023/08/01 00:29:59;;;;;;;5.17;3.63;;;;;;;17.34;100.00;97131.50;5052119;28;20212;-81
2023/08/01 00:32:26;;;;;;;6.37;3.90;;;;;;;17.38;100.00;97130.19;5053035;28;20211;-81
2023/08/01 00:34:52;;;;;;;5.40;3.67;;;;;;;17.39;100.00;97120.34;5052904;28;20218;-81
2023/08/01 00:37:19;;;;;;;6.20;3.83;;;;;;;17.34;100.00;97125.31;5052757;28;20633;-81
2023/08/01 00:39:45;;;;;;;5.30;3.90;;;;;;;17.31;100.00;97113.16;5051834;28;20228;-81
2023/08/01 00:42:12;;;;;;;5.80;3.50;;;;;;;17.31;100.00;97097.13;5052461;28;20266;-81
2023/08/01 00:44:38;;;;;;;6.10;4.07;;;;;;;17.30;100.00;97095.47;5052511;28;20213;-81
2023/08/01 00:47:07;;;;;;;5.43;3.80;;;;;;;17.31;100.00;97089.09;5052472;28;20215;-81
2023/08/01 00:49:33;;;;;;;7.70;4.20;;;;;;;17.26;100.00;97078.09;5051497;28;20646;-81
2023/08/01 00:52:00;;;;;;;5.63;3.60;;;;;;;17.19;100.00;97071.78;5055349;22;20228;-80
2023/08/01 00:54:26;;;;;;;5.90;4.40;;;;;;;17.11;100.00;97063.81;5032798;28;20504;-79
2023/08/01 00:56:53;;;;;;;5.47;3.80;;;;;;;17.11;100.00;97063.81;5032480;28;20303;-80
2023/08/01 00:59:20;;;;;;;6.33;4.00;;;;;;;17.13;100.00;97050.31;5028840;28;20229;-78
2023/08/01 01:01:46;;;;;;;7.23;4.10;;;;;;;17.12;100.00;97049.47;5031817;28;20236;-80
2023/08/01 01:04:14;;;;;;;6.00;4.30;;;;;;;17.12;100.00;97046.78;5032587;28;20216;-80
2023/08/01 01:06:46;;;;;;;6.50;3.90;;;;;;;17.10;100.00;97032.78;5032418;28;20220;-79
2023/08/01 01:09:16;;;;;;;7.60;3.93;;;;;;;17.15;100.00;97037.59;5031684;28;20645;-79
2023/08/01 01:11:43;;;;;;;5.43;3.90;;;;;;;17.07;100.00;97030.44;5032390;28;20236;-79
2023/08/01 01:14:09;;;;;;;5.23;3.90;;;;;;;17.09;100.00;97024.94;5032403;28;20216;-79
2023/08/01 01:16:36;;;;;;;6.23;3.70;;;;;;;17.12;100.00;97020.09;5032229;28;20212;-79
2023/08/01 01:19:02;;;;;;;6.40;3.67;;;;;;;17.07;100.00;97019.78;5031855;28;20685;-79
2023/08/01 01:21:30;;;;;;;6.03;3.77;;;;;;;17.14;100.00;97007.41;5031645;28;20675;-78
2023/08/01 01:23:58;;;;;;;7.77;3.77;;;;;;;17.19;100.00;97018.38;5032114;28;20209;-78
2023/08/01 01:26:25;;;;;;;5.00;3.73;;;;;;;17.14;100.00;97019.94;5032227;28;20211;-79
2023/08/01 01:28:52;;;;;;;5.90;3.90;;;;;;;17.18;100.00;97027.41;5032184;28;20220;-78
2023/08/01 01:31:19;;;;;;;6.57;3.70;;;;;;;17.17;100.00;97020.41;5031079;28;20232;-79
2023/08/01 01:33:47;;;;;;;6.13;3.80;;;;;;;17.18;100.00;97022.06;5031929;28;20653;-79
2023/08/01 01:36:13;;;;;;;5.13;3.47;;;;;;;17.18;100.00;97010.56;5032130;28;20229;-78
2023/08/01 01:38:41;;;;;;;6.07;3.90;;;;;;;17.17;100.00;97014.22;5031831;28;20691;-78
2023/08/01 01:41:07;;;;;;;6.07;3.63;;;;;;;17.18;100.00;97016.72;5030997;28;20232;-78
2023/08/01 01:43:33;;;;;;;5.97;4.10;;;;;;;17.18;100.00;97015.91;5031778;28;20212;-79
2023/08/01 01:45:59;;;;;;;6.50;4.07;;;;;;;17.13;100.00;97010.25;5031940;28;20231;-79
2023/08/01 01:48:26;;;;;;;7.30;4.60;;;;;;;17.11;100.00;97005.09;5031722;28;20215;-79
2023/08/01 01:50:52;;;;;;;6.83;4.33;;;;;;;17.05;100.00;96989.75;5030678;28;20225;-80
2023/08/01 01:53:19;;;;;;;6.13;4.17;;;;;;;17.01;100.00;96987.63;5031906;28;20213;-80
2023/08/01 01:55:47;;;;;;;7.97;4.50;;;;;;;17.00;100.00;96985.97;5031695;28;20219;-78
2023/08/01 01:58:13;;;;;;;6.00;4.03;;;;;;;16.97;100.00;96971.13;5031902;28;20216;-78
2023/08/01 02:00:40;;;;;;;6.43;4.20;;;;;;;16.96;100.00;96952.59;5030912;28;20601;-78
2023/08/01 02:03:10;;;;;;;5.40;4.00;;;;;;;16.95;100.00;96959.75;5031601;28;20213;-78
2023/08/01 02:05:36;;;;;;;6.30;4.53;;;;;;;16.93;100.00;96953.78;5032403;28;20209;-77
2023/08/01 02:08:04;;;;;;;4.43;3.93;;;;;;;16.95;100.00;96957.09;5033728;28;20466;-78
2023/08/01 02:10:31;;;;;;;7.47;4.63;;;;;;;16.98;100.00;96956.75;5033368;28;20577;-77
2023/08/01 02:12:59;;;;;;;7.00;4.37;;;;;;;16.99;100.00;96973.59;5032875;28;20702;-77
2023/08/01 02:15:25;;;;;;;7.90;5.33;;;;;;;16.99;100.00;96969.09;5033186;28;20672;-79
2023/08/01 02:17:52;;;;;;;5.63;4.40;;;;;;;17.04;100.00;96964.06;5031185;28;20208;-79
2023/08/01 02:20:18;;;;;;;6.30;4.20;;;;;;;16.99;100.00;96963.75;5030399;28;20238;-79
2023/08/01 02:22:45;;;;;;;5.83;4.30;;;;;;;16.96;100.00;96957.94;5031111;28;20229;-80
2023/08/01 02:25:12;;;;;;;6.20;4.33;;;;;;;16.97;100.00;96949.75;5031435;28;20208;-80
2023/08/01 02:27:38;;;;;;;7.27;4.50;;;;;;;17.02;100.00;96944.72;5031343;28;20255;-78
2023/08/01 02:30:07;;;;;;;9.00;4.60;;;;;;;17.03;100.00;96959.75;5030914;28;20208;-78
2023/08/01 02:32:34;;;;;;;6.07;4.17;;;;;;;17.05;100.00;96957.72;5031076;28;20679;-79
2023/08/01 02:35:00;;;;;;;7.80;5.03;;;;;;;17.05;100.00;96963.06;5031339;28;20205;-78
2023/08/01 02:37:27;;;;;;;6.30;4.47;;;;;;;17.04;100.00;96956.06;5031308;28;20209;-78
2023/08/01 02:39:53;;;;;;;6.67;4.60;;;;;;;17.08;100.00;96957.38;5030474;28;20225;-79
2023/08/01 02:42:20;;;;;;;6.80;4.40;;;;;;;17.06;100.00;96947.88;5030939;28;20671;-79
2023/08/01 02:44:46;;;;;;;6.93;4.27;;;;;;;17.00;100.00;96945.91;5031042;28;20208;-79
2023/08/01 02:47:14;;;;;;;7.27;4.50;;;;;;;16.92;100.00;96946.78;5030851;28;20216;-80
2023/08/01 02:49:41;;;;;;;5.97;4.20;;;;;;;16.87;100.00;96938.47;5030490;28;20209;-78
2023/08/01 02:52:07;;;;;;;7.97;4.83;;;;;;;16.86;100.00;96936.78;5030826;28;20240;-79
2023/08/01 02:54:34;;;;;;;6.40;4.60;;;;;;;16.88;100.00;96931.28;5031099;28;20595;-79
2023/08/01 02:57:00;;;;;;;6.50;4.60;;;;;;;16.86;100.00;96918.13;5031061;28;20204;-80
2023/08/01 02:59:27;;;;;;;7.13;4.43;;;;;;;16.91;100.00;96921.09;5030093;28;20212;-80
2023/08/01 03:01:53;;;;;;;5.47;4.37;;;;;;;16.86;100.00;96918.13;5030792;28;20604;-78
2023/08/01 03:04:21;;;;;;;7.63;5.13;;;;;;;16.88;100.00;96916.09;5030766;28;20299;-79
2023/08/01 03:06:47;;;;;;;7.63;4.70;;;;;;;16.90;100.00;96916.78;5031002;28;20211;-80
2023/08/01 03:09:14;;;;;;;6.43;4.70;;;;;;;16.90;100.00;96919.44;5030186;28;20220;-80
2023/08/01 03:11:40;;;;;;;8.60;4.53;;;;;;;16.90;100.00;96915.94;5030731;28;20236;-78
2023/08/01 03:14:07;;;;;;;6.77;4.33;;;;;;;16.87;100.00;96911.78;5030792;28;20213;-79
2023/08/01 03:16:33;;;;;;;5.67;4.60;;;;;;;16.86;100.00;96907.44;5030598;28;20213;-79
2023/08/01 03:19:04;;;;;;;6.17;3.97;;;;;;;16.85;100.00;96902.28;5030920;28;20212;-80
2023/08/01 03:21:32;;;;;;;5.40;4.37;;;;;;;16.87;100.00;96894.91;5030394;28;20255;-80
2023/08/01 03:23:59;;;;;;;7.30;4.47;;;;;;;16.91;100.00;96889.06;5031191;28;20213;-79
2023/08/01 03:26:25;;;;;;;8.43;4.47;;;;;;;16.92;100.00;96903.22;5034233;28;20216;-79
2023/08/01 03:28:52;;;;;;;5.60;4.40;;;;;;;16.90;100.00;96911.44;5034151;28;20215;-79
2023/08/01 03:31:18;;;;;;;7.37;4.37;;;;;;;16.89;100.00;96917.75;5033340;28;20221;-79
2023/08/01 03:33:45;;;;;;;7.87;4.20;;;;;;;16.93;100.00;96911.06;5034286;28;20220;-79
2023/08/01 03:36:11;;;;;;;6.87;4.50;;;;;;;16.95;100.00;96909.06;5034179;28;20212;-79
2023/08/01 03:38:39;;;;;;;5.90;4.20;;;;;;;16.97;100.00;96904.38;5034029;28;20213;-79
2023/08/01 03:41:06;;;;;;;6.53;4.37;;;;;;;16.95;100.00;96909.06;5033137;28;20247;-81
2023/08/01 03:43:32;;;;;;;8.87;4.73;;;;;;;16.97;100.00;96907.06;5033902;28;20215;-79
2023/08/01 03:45:59;;;;;;;4.80;4.03;;;;;;;17.01;100.00;96907.53;5034015;28;20221;-80
2023/08/01 03:48:25;;;;;;;5.97;4.20;;;;;;;17.03;100.00;96894.84;5034051;28;20282;-78
2023/08/01 03:50:52;;;;;;;7.67;4.50;;;;;;;17.00;100.00;96890.69;5032922;28;20221;-79
2023/08/01 03:53:18;;;;;;;7.93;4.20;;;;;;;17.02;100.00;96890.50;5033972;28;20212;-80
2023/08/01 03:55:48;;;;;;;6.67;4.13;;;;;;;17.04;100.00;96899.16;5033894;28;20216;-80
2023/08/01 03:58:14;;;;;;;5.33;3.80;;;;;;;17.08;100.00;96903.97;5034345;28;20266;-78
2023/08/01 04:00:41;;;;;;;5.93;4.00;;;;;;;17.07;100.00;96891.63;5033061;28;20725;-80
2023/08/01 04:03:08;;;;;;;6.03;3.60;;;;;;;17.10;100.00;96869.94;5033994;28;20208;-80
2023/08/01 04:05:34;;;;;;;5.60;3.70;;;;;;;17.15;100.00;96872.91;5033553;28;20213;-79
2023/08/01 04:08:01;;;;;;;7.67;3.70;;;;;;;17.14;100.00;96863.22;5033616;28;20227;-79
2023/08/01 04:10:27;;;;;;;5.43;3.33;;;;;;;17.24;100.00;96855.00;5032624;28;20200;-81
2023/08/01 04:12:55;;;;;;;5.53;3.30;;;;;;;17.22;100.00;96825.81;5033320;28;20217;-78
2023/08/01 04:15:21;;;;;;;5.00;3.43;;;;;;;17.22;100.00;96788.41;5033456;28;20232;-78
2023/08/01 04:17:48;;;;;;;5.27;3.37;;;;;;;17.24;100.00;96777.56;5033487;28;20211;-80
2023/08/01 04:20:14;;;;;;;5.53;3.40;;;;;;;17.27;100.00;96780.72;5032387;28;20699;-78
2023/08/01 04:22:41;;;;;;;5.80;3.47;;;;;;;17.37;100.00;96773.28;5033192;28;20738;-79
2023/08/01 04:25:08;;;;;;;5.00;3.27;;;;;;;17.40;100.00;96783.63;5033185;28;20616;-78
2023/08/01 04:27:35;;;;;;;5.47;3.00;;;;;;;17.41;100.00;96782.63;5033144;28;20215;-78
2023/08/01 04:30:03;;;;;;;4.23;3.13;;;;;;;17.38;100.00;96793.63;5032460;28;20585;-78
2023/08/01 04:32:30;;;;;;;5.53;3.30;;;;;;;17.41;100.00;96803.97;5032964;28;20233;-78
2023/08/01 04:34:56;;;;;;;5.87;3.33;;;;;;;17.43;100.00;96785.91;5032972;28;20212;-78
2023/08/01 04:37:23;;;;;;;4.03;3.17;;;;;;;17.47;100.00;96776.56;5033123;28;20205;-80
2023/08/01 04:39:49;;;;;;;4.63;3.07;;;;;;;17.49;100.00;96763.84;5032207;28;20211;-79
2023/08/01 04:42:16;;;;;;;5.33;3.40;;;;;;;17.50;100.00;96760.13;5032806;28;20733;-78
2023/08/01 04:44:43;;;;;;;5.43;3.13;;;;;;;17.50;100.00;96749.47;5032989;28;20212;-80
2023/08/01 04:47:11;;;;;;;5.27;3.23;;;;;;;17.49;100.00;96766.50;5033160;28;20212;-80
2023/08/01 04:49:38;;;;;;;4.67;3.00;;;;;;;17.53;100.00;96774.97;5032056;28;20217;-79
2023/08/01 04:52:05;;;;;;;6.63;4.03;;;;;;;17.60;100.00;96786.59;5032437;28;20243;-79
2023/08/01 04:54:32;;;;;;;5.80;3.57;;;;;;;17.64;100.00;96814.63;5032555;28;20213;-79
2023/08/01 04:56:58;;;;;;;5.60;3.90;;;;;;;17.65;100.00;96824.28;5032886;28;20208;-79
2023/08/01 04:59:25;;;;;;;5.50;3.13;;;;;;;17.66;100.00;96832.13;5031748;28;20225;-80
2023/08/01 05:01:51;;;;;;;4.97;3.07;;;;;;;17.79;100.00;96845.72;5032309;28;20711;-80
2023/08/01 05:04:19;;;;;;;3.90;2.73;;;;;;;17.77;100.00;96836.19;5032445;28;20645;-79
2023/08/01 05:06:45;;;;;;;5.90;3.10;;;;;;;17.83;100.00;96840.81;5032248;28;20220;-79
2023/08/01 05:09:12;;;;;;;5.13;3.20;;;;;;;17.94;100.00;96865.28;5031520;28;20599;-79
2023/08/01 05:11:39;;;;;;;3.47;2.70;;;;;;;17.97;100.00;96870.25;5032279;28;20235;-78
2023/08/01 05:14:05;;;;;;;4.73;3.03;;;;;;;17.98;100.00;96866.56;5032141;28;20208;-78
2023/08/01 05:16:32;;;;;;;4.63;2.70;;;;;;;17.98;100.00;96850.53;5032123;28;20217;-81
2023/08/01 05:18:58;;;;;;;3.37;2.60;;;;;;;17.96;100.00;96843.69;5031993;28;20205;-79
2023/08/01 05:21:26;;;;;;;4.50;2.53;;;;;;;17.94;100.00;96827.03;5031028;28;20241;-79
2023/08/01 05:23:52;;;;;;;3.17;2.60;;;;;;;17.88;100.00;96820.56;5032248;28;20226;-80
2023/08/01 05:26:19;;;;;;;3.90;2.60;;;;;;;17.92;100.00;96819.19;5032079;28;20215;-78
2023/08/01 05:28:45;;;;;;;3.23;2.43;;;;;;;17.94;100.00;96827.88;5031490;28;20590;-78
2023/08/01 05:31:12;;;;;;;3.80;2.70;;;;;;;18.00;100.00;96824.47;5030909;28;20221;-79
2023/08/01 05:33:39;;;;;;;4.07;2.40;;;;;;;18.00;100.00;96819.13;5031611;28;20311;-78
2023/08/01 05:36:06;;;;;;;5.20;2.90;;;;;;;17.99;100.00;96820.09;5031407;28;20219;-77
2023/08/01 05:38:33;;;;;;;4.17;2.87;;;;;;;17.99;100.00;96825.44;5031701;28;20234;-78
2023/08/01 05:41:00;;;;;;;3.63;2.80;;;;;;;18.00;100.00;96828.97;5030840;28;20240;-78
2023/08/01 05:43:26;;;;;;;3.03;2.60;;;;;;;18.00;100.00;96824.47;5031654;28;20205;-79
2023/08/01 05:45:53;;;;;;;4.20;2.67;;;;;;;18.03;100.00;96826.75;5031657;28;20209;-78
2023/08/01 05:48:19;;;;;;;4.07;2.87;;;;;;;18.08;100.00;96827.03;5030909;28;20219;-78
2023/08/01 05:50:46;;;;;;;4.20;2.90;;;;;;;18.15;100.00;96819.94;5030458;28;20252;-78
2023/08/01 05:53:13;;;;;;;4.23;2.53;;;;;;;18.20;100.00;96830.91;5031823;28;20212;-79
2023/08/01 05:55:40;;;;;;;3.97;2.57;;;;;;;18.30;100.00;96828.78;5031456;28;20687;-79
2023/08/01 05:58:07;;;;;;;3.10;2.60;;;;;;;18.33;100.00;96839.16;5031536;28;20208;-77
2023/08/01 06:00:33;;;;;;;3.87;2.67;;;;;;;18.40;100.00;96839.25;5030632;28;20592;-78
2023/08/01 06:03:00;;;;;;;4.47;3.10;;;;;;;18.42;100.00;96843.38;5031419;28;20213;-78
2023/08/01 06:05:27;;;;;;;3.53;2.80;;;;;;;18.44;100.00;96844.03;5031519;28;20240;-78
2023/08/01 06:07:53;;;;;;;4.07;2.77;;;;;;;18.42;100.00;96843.38;5031673;28;20208;-78
2023/08/01 06:10:20;;;;;;;5.33;3.07;;;;;;;18.44;100.00;96846.72;5030889;28;20205;-79
2023/08/01 06:12:48;;;;;;;5.23;3.33;;;;;;;18.45;100.00;96848.38;5031381;28;20236;-79
2023/08/01 06:15:14;;;;;;;6.93;3.30;;;;;;;18.52;100.00;96837.78;5031477;28;20224;-79
2023/08/01 06:17:41;;;;;;;4.37;3.10;;;;;;;18.59;100.00;96834.13;5031336;28;20223;-79
2023/08/01 06:20:08;;;;;;;4.47;3.03;;;;;;;18.63;100.00;96840.78;5030567;28;20213;-79
2023/08/01 06:22:34;;;;;;;4.93;3.30;;;;;;;18.64;100.00;96837.09;5031303;28;20243;-76
2023/08/01 06:25:01;;;;;;;5.50;3.57;;;;;;;18.61;100.00;96837.47;5032121;28;20220;-83
2023/08/01 06:27:27;;;;;;;6.20;3.63;;;;;;;18.61;100.00;96858.03;5031328;28;20591;-79
2023/08/01 06:29:55;;;;;;;5.50;3.53;;;;;;;18.55;100.00;96869.50;5030517;28;20208;-78
2023/08/01 06:32:22;;;;;;;4.77;3.43;;;;;;;18.31;100.00;96869.78;5031127;28;20236;-80
2023/08/01 06:34:48;;;;;;;4.93;3.60;;;;;;;18.02;100.00;96883.91;5031335;28;20697;-81
2023/08/01 06:37:15;;;;;;;6.37;3.53;;;;;;;17.79;100.00;96884.97;5031472;28;20204;-79
2023/08/01 06:39:41;;;;;;;6.43;4.13;;;;;;;17.50;100.00;96893.72;5030568;28;20209;-82
2023/08/01 06:42:08;;;;;;;7.77;3.90;;;;;;;17.30;100.00;96891.66;5031132;28;20699;-81
2023/08/01 06:44:34;;;;;;;6.10;4.37;;;;;;;17.15;100.00;96896.94;5031021;28;20213;-82
2023/08/01 06:47:02;;;;;;;7.90;4.37;;;;;;;17.05;100.00;96896.31;5031089;28;20698;-81
2023/08/01 06:49:29;;;;;;;6.77;4.50;;;;;;;17.02;100.00;96894.00;5030824;28;20236;-80
2023/08/01 06:51:55;;;;;;;8.03;4.77;;;;;;;16.93;100.00;96892.38;5053875;22;20239;-81
2023/08/01 06:54:22;;;;;;;6.50;4.60;;;;;;;16.91;100.00;96891.75;5049965;28;20210;-79
2023/08/01 06:56:48;;;;;;;6.10;4.10;;;;;;;16.90;100.00;96881.25;5048951;28;20223;-82
2023/08/01 06:59:15;;;;;;;5.90;4.80;;;;;;;16.88;100.00;96860.06;5047848;28;20204;-79
2023/08/01 07:01:43;;;;;;;7.53;4.90;;;;;;;16.85;100.00;96848.91;5051948;28;20235;-79
2023/08/01 07:04:11;;;;;;;6.90;4.37;;;;;;;16.84;100.00;96853.41;5052117;28;20212;-80
2023/08/01 07:06:38;;;;;;;7.70;4.60;;;;;;;16.89;100.00;96855.56;5051515;28;20592;-81
2023/08/01 07:09:04;;;;;;;6.80;4.47;;;;;;;16.81;100.00;96853.75;5054225;28;20232;-80
2023/08/01 07:11:31;;;;;;;6.47;4.77;;;;;;;16.86;100.00;96846.06;5051127;28;20224;-80
2023/08/01 07:13:57;;;;;;;7.40;4.60;;;;;;;16.87;100.00;96841.53;5051451;28;20322;-82
2023/08/01 07:16:24;;;;;;;7.17;4.83;;;;;;;16.90;100.00;96839.38;5051422;28;20204;-84
2023/08/01 07:18:51;;;;;;;6.90;5.27;;;;;;;16.90;100.00;96836.72;5053125;28;20231;-83
2023/08/01 07:21:18;;;;;;;7.57;5.33;;;;;;;16.84;100.00;96837.41;5053207;28;20240;-81
2023/08/01 07:23:45;;;;;;;7.97;5.10;;;;;;;16.80;100.00;96841.44;5052568;28;20218;-79
2023/08/01 07:26:12;;;;;;;6.77;5.07;;;;;;;16.80;100.00;96852.09;5051198;28;20208;-79
2023/08/01 07:28:38;;;;;;;8.13;5.33;;;;;;;16.82;100.00;96876.75;5051083;28;20222;-79
2023/08/01 07:31:06;;;;;;;8.50;5.47;;;;;;;16.78;100.00;96861.28;5050410;28;20204;-79
2023/08/01 07:33:33;;;;;;;8.17;5.20;;;;;;;16.71;100.00;96842.47;5054205;28;20215;-79
2023/08/01 07:36:00;;;;;;;8.33;4.90;;;;;;;16.62;100.00;96851.53;5053569;28;20213;-79
2023/08/01 07:38:28;;;;;;;7.07;4.93;;;;;;;16.53;100.00;96844.56;5051535;28;20212;-79
2023/08/01 07:40:56;;;;;;;7.33;4.60;;;;;;;16.48;100.00;96846.94;5050844;28;20212;-79
2023/08/01 07:43:23;;;;;;;8.03;4.93;;;;;;;16.44;100.00;96845.59;5052967;28;20216;-76
2023/08/01 07:45:50;;;;;;;6.83;4.57;;;;;;;16.35;100.00;96841.25;5052499;28;20737;-76
2023/08/01 07:48:17;;;;;;;8.40;4.83;;;;;;;16.41;100.00;96834.47;5051100;28;20216;-76
2023/08/01 07:50:43;;;;;;;6.97;4.67;;;;;;;16.44;100.00;96848.28;5052343;28;20310;-77
2023/08/01 07:53:10;;;;;;;7.78;4.93;;;;;;;16.52;100.00;96853.56;5048590;28;20447;-77
2023/08/01 07:55:38;;;;;;;7.37;4.80;;;;;;;16.55;100.00;96858.56;5047024;28;20219;-77
2023/08/01 07:58:05;;;;;;;7.43;4.70;;;;;;;16.58;100.00;96863.53;5051501;28;20216;-77
2023/08/01 08:00:31;;;;;;;7.17;4.60;;;;;;;16.65;100.00;96848.50;5050043;28;20216;-78
2023/08/01 08:02:58;;;;;;;7.70;4.83;;;;;;;16.78;100.00;96851.47;5052430;28;20326;-81
2023/08/01 08:05:24;;;;;;;5.30;3.90;;;;;;;16.90;100.00;96836.72;5052171;28;20577;-83
2023/08/01 08:07:51;;;;;;;6.07;4.27;;;;;;;17.02;100.00;96837.94;5051503;28;20295;-81
2023/08/01 08:10:17;;;;;;;5.63;3.97;;;;;;;17.09;100.00;96838.06;5048588;28;20212;-82
2023/08/01 08:12:45;;;;;;;4.97;3.67;;;;;;;17.18;100.00;96843.19;5051211;28;20230;-81
2023/08/01 08:15:13;;;;;;;6.70;3.93;;;;;;;17.29;100.00;96852.59;5050752;28;20208;-84
2023/08/01 08:17:40;;;;;;;5.80;3.87;;;;;;;17.26;100.00;96855.66;5053247;28;20220;-83
2023/08/01 08:20:07;;;;;;;5.00;3.50;;;;;;;17.21;100.00;96853.53;5052474;28;20590;-83
2023/08/01 08:22:34;;;;;;;5.27;3.33;;;;;;;17.16;100.00;96858.56;5052855;28;20235;-81
2023/08/01 08:25:00;;;;;;;4.57;3.40;;;;;;;17.12;100.00;96851.91;5053128;28;20204;-83
2023/08/01 08:27:27;;;;;;;4.23;2.90;;;;;;;17.14;100.00;96860.56;5051593;28;20218;-81
2023/08/01 08:29:55;;;;;;;4.33;3.40;;;;;;;17.18;100.00;96861.06;5047881;28;20231;-81
2023/08/01 08:32:21;;;;;;;3.97;2.80;;;;;;;17.21;100.00;96860.69;5047992;28;20234;-81
2023/08/01 08:34:48;;;;;;;3.47;2.67;;;;;;;17.23;100.00;96850.66;5049176;28;20208;-82
2023/08/01 08:37:14;;;;;;;4.03;2.67;;;;;;;17.29;100.00;96850.78;5049169;28;20465;-81
2023/08/01 08:39:41;;;;;;;3.13;2.60;;;;;;;17.38;100.00;96852.41;5049289;28;20214;-81
2023/08/01 08:42:07;;;;;;;5.13;3.47;;;;;;;17.47;100.00;96851.34;5051865;28;20766;-82
2023/08/01 08:44:42;;;;;;;3.13;2.20;;;;;;;17.59;100.00;96849.91;5051773;28;20212;-82
2023/08/01 08:47:12;;;;;;;4.53;2.53;;;;;;;17.77;100.00;96853.09;5051031;28;20207;-82
2023/08/01 08:49:39;;;;;;;6.07;2.40;;;;;;;17.97;100.00;96848.88;5050822;28;20212;-82
2023/08/01 08:52:07;;;;;;;2.63;2.10;;;;;;;18.10;100.00;96849.06;5051006;28;20282;-82
2023/08/01 08:54:33;;;;;;;3.03;2.13;;;;;;;18.16;100.00;96852.88;5050883;28;20678;-82
2023/08/01 08:57:00;;;;;;;3.40;2.30;;;;;;;18.19;100.00;96858.69;5051922;28;20577;-83
2023/08/01 08:59:30;;;;;;;3.30;2.30;;;;;;;18.16;100.00;96860.88;5050274;28;20654;-82
2023/08/01 09:01:56;;;;;;;2.90;2.40;;;;;;;18.16;100.00;96867.06;5050873;28;20318;-83
2023/08/01 09:04:24;;;;;;;2.63;2.10;;;;;;;18.20;100.00;96864.84;5051214;28;20235;-82
2023/08/01 09:06:52;;;;;;;2.83;2.33;;;;;;;18.20;100.00;96872.84;5051817;28;20208;-90
2023/08/01 09:09:19;;;;;;;3.97;2.47;;;;;;;18.17;100.00;96871.38;5050039;28;20203;-84
2023/08/01 09:11:46;;;;;;;2.47;2.27;;;;;;;18.13;100.00;96864.75;5051311;28;20227;-81
2023/08/01 09:14:13;;;;;;;3.57;2.20;;;;;;;18.10;100.00;96875.00;5051207;28;20200;-85
2023/08/01 09:16:41;;;;;;;3.33;2.10;;;;;;;18.05;100.00;96875.50;5050384;28;20204;-79
2023/08/01 09:19:09;;;;;;;2.97;2.60;;;;;;;17.99;100.00;96876.25;5050539;28;20307;-87
2023/08/01 09:21:39;;;;;;;3.73;2.50;;;;;;;17.98;100.00;96879.94;5047713;28;20535;-90
2023/08/01 09:24:10;;;;;;;3.57;2.40;;;;;;;17.97;100.00;96880.09;5048061;28;20600;-87
2023/08/01 09:26:38;;;;;;;2.40;2.20;;;;;;;17.99;100.00;96884.25;5049522;28;20627;-89
2023/08/01 09:29:05;;;;;;;2.93;2.03;;;;;;;18.07;100.00;96881.53;5049445;28;20208;-89
2023/08/01 09:31:33;;;;;;;3.43;1.80;;;;;;;18.09;100.00;96879.50;5050119;28;20353;-89
2023/08/01 09:34:00;;;;;;;3.13;2.03;;;;;;;18.21;100.00;96878.03;5050781;28;20208;-89
2023/08/01 09:36:26;;;;;;;2.13;1.70;;;;;;;18.25;100.00;96891.88;5049571;28;20603;-85
2023/08/01 09:38:59;;;;;;;2.67;1.73;;;;;;;18.14;100.00;96887.81;5047914;28;20209;-89
2023/08/01 09:41:26;;;;;;;2.63;1.50;;;;;;;18.17;100.00;96898.13;5047871;28;20285;-86
2023/08/01 09:43:52;;;;;;;2.10;1.50;;;;;;;18.14;100.00;96893.16;5050018;28;20231;-85
2023/08/01 09:46:19;;;;;;;2.73;1.40;;;;;;;18.11;100.00;96898.03;5051816;28;20210;-87
2023/08/01 09:48:46;;;;;;;1.93;1.47;;;;;;;18.20;100.00;96896.94;5049083;28;20204;-82
2023/08/01 09:51:13;;;;;;;1.70;1.40;;;;;;;18.42;100.00;96901.41;5047799;28;20231;-82
2023/08/01 09:53:49;;;;;;;1.60;1.30;;;;;;;18.49;100.00;96895.16;5048307;28;20211;-80
2023/08/01 09:56:20;;;;;;;2.93;1.50;;;;;;;18.51;100.00;96895.78;5049440;28;20322;-82
2023/08/01 09:58:47;;;;;;;2.53;1.33;;;;;;;18.49;100.00;96903.19;5051552;28;20211;-85
2023/08/01 10:01:14;;;;;;;1.80;1.30;;;;;;;18.58;100.00;96899.38;5051424;28;20236;-87
2023/08/01 10:03:47;;;;;;;1.20;1.10;;;;;;;18.66;100.00;96891.25;5050747;28;20239;-84
2023/08/01 10:06:17;;;;;;;1.10;1.00;;;;;;;18.67;100.00;96897.44;5050503;28;20208;-92
2023/08/01 10:08:45;;;;;;;1.40;1.10;;;;;;;18.68;100.00;96899.94;5048667;28;20540;-92
2023/08/01 10:11:13;;;;;;;1.37;1.20;;;;;;;18.64;100.00;96912.03;5047921;28;20227;-86
2023/08/01 10:13:42;;;;;;;1.27;1.00;;;;;;;18.61;100.00;96917.75;5048243;28;20674;-89
2023/08/01 10:16:09;;;;;;;1.40;0.97;;;;;;;18.61;100.00;96919.59;5051189;28;20215;-92
2023/08/01 10:18:38;;;;;;;1.58;1.00;;;;;;;18.71;100.00;96923.66;5050575;28;20436;-88
2023/08/01 10:21:05;;;;;;;1.40;1.30;;;;;;;18.79;100.00;96923.56;5048343;28;20212;-88
2023/08/01 10:23:33;;;;;;;2.03;1.20;;;;;;;18.68;100.00;96918.69;5049108;28;20239;-91
2023/08/01 10:26:01;;;;;;;1.87;1.07;;;;;;;18.75;100.00;96911.56;5048865;28;20208;-88
2023/08/01 10:28:35;;;;;;;1.23;0.93;;;;;;;18.75;100.00;96919.59;5050030;28;20693;-90
2023/08/01 10:31:13;;;;;;;1.13;1.00;;;;;;;18.83;100.00;96922.16;5050388;28;20211;-95
2023/08/01 10:33:42;;;;;;;0.70;0.70;;;;;;;18.85;100.00;96930.00;5052681;28;20578;-88
2023/08/01 10:36:15;;;;;;;0.60;0.60;;;;;;;18.87;100.00;96925.28;5055175;28;20214;-88
2023/08/01 10:38:49;;;;;;;0.67;0.53;;;;;;;18.85;100.00;96930.88;5055014;28;20211;-86
2023/08/01 10:41:25;;;;;;;0.70;0.70;;;;;;;18.92;100.00;96931.78;5054376;28;20234;-85
2023/08/01 10:43:52;;;;;;;0.80;0.50;;;;;;;19.10;100.00;96918.81;5055162;28;20258;-88
2023/08/01 10:46:20;;;;;;;1.33;0.60;;;;;;;19.20;100.00;96922.03;5054878;28;20219;-87
2023/08/01 10:48:50;;;;;;;0.50;0.50;;;;;;;19.28;100.00;96921.94;5054804;28;20212;-89
2023/08/01 10:51:17;;;;;;;0.67;0.60;;;;;;;19.35;100.00;96925.53;5054640;28;20239;-90
2023/08/01 10:53:44;;;;;;;0.67;0.60;;;;;;;19.57;100.00;96942.47;5055213;28;20204;-86
2023/08/01 10:56:17;;;;;;;0.50;0.50;;;;;;;19.64;100.00;96930.75;5055331;28;20218;-96
2023/08/01 10:58:43;;;;;;;1.30;0.90;;;;;;;19.76;100.00;96925.75;5055518;28;20214;-86
2023/08/01 11:01:10;;;;;;;2.00;0.80;;;;;;;19.84;100.00;96929.13;5054125;28;20627;-91
2023/08/01 11:03:39;;;;;;;1.70;0.70;;;;;;;19.70;100.00;96927.31;5054570;28;20227;-82
2023/08/01 11:06:06;;;;;;;1.33;0.80;;;;;;;19.72;100.00;96936.03;5054156;28;20701;-87
2023/08/01 11:08:37;;;;;;;0.80;0.70;;;;;;;19.73;100.00;96937.69;5053255;28;20679;-89
2023/08/01 11:11:06;;;;;;;1.03;0.60;;;;;;;19.71;100.00;96934.38;5050983;28;20230;-92
2023/08/01 11:13:34;;;;;;;1.73;0.83;;;;;;;19.97;100.00;96944.50;5051435;28;20204;-91
2023/08/01 11:16:02;;;;;;;1.53;0.80;;;;;;;20.08;100.00;96936.81;5051616;28;20266;-84
2023/08/01 11:18:29;;;;;;;1.10;0.97;;;;;;;20.38;100.00;96942.81;5051583;28;20214;-88
2023/08/01 11:20:57;;;;;;;0.80;0.80;;;;;;;20.83;100.00;96935.06;5052747;28;20651;-88
2023/08/01 11:23:29;;;;;;;0.97;0.70;;;;;;;21.17;95.05;96921.63;5050781;28;20232;-88